createdAt,value
2022-10-19T03:57:37.938Z,31.87
2022-10-19T04:03:44.649Z,33.07
2022-10-19T04:22:24.045Z,22.70
2022-10-19T04:28:26.235Z,30.00
2022-10-19T04:34:28.147Z,28.07
2022-10-19T04:40:41.529Z,29.20
2022-10-19T04:46:50.135Z,38.97
2022-10-19T04:53:05.436Z,39.73
2022-10-19T04:59:10.430Z,29.40
2022-10-19T05:05:13.569Z,37.33
2022-10-19T05:11:23.057Z,25.73
2022-10-19T05:17:24.851Z,26.80
2022-10-19T05:23:26.786Z,29.80
2022-10-19T05:29:28.708Z,33.77
2022-10-19T05:35:30.681Z,30.23
2022-10-19T05:41:32.851Z,30.70
2022-10-19T05:47:35.431Z,24.80
2022-10-19T05:59:39.216Z,26.27
2022-10-19T06:05:40.906Z,33.90
2022-10-19T06:11:43.617Z,31.63
2022-10-19T06:17:45.358Z,29.47
2022-10-19T06:23:53.856Z,24.97
2022-10-19T06:29:55.721Z,30.37
2022-10-19T06:36:15.644Z,27.57
2022-10-19T06:42:17.505Z,23.27
2022-10-19T06:48:19.809Z,25.23
2022-10-19T06:54:21.580Z,21.73
2022-10-19T07:00:26.407Z,19.60
2022-10-19T07:06:30.441Z,29.47
2022-10-19T07:12:32.270Z,16.40
2022-10-19T07:18:36.042Z,21.43
2022-10-19T07:24:38.762Z,16.63
2022-10-19T07:30:41.785Z,13.87
2022-10-19T07:36:48.323Z,12.83
2022-10-19T07:42:51.261Z,11.13
2022-10-19T07:49:00.206Z,14.30
2022-10-19T07:55:02.475Z,16.80
2022-10-19T08:01:07.159Z,14.27
2022-10-19T08:07:09.675Z,13.47
2022-10-19T08:13:13.223Z,11.70
2022-10-19T08:19:16.660Z,13.07
2022-10-19T08:25:18.486Z,12.80
2022-10-19T08:31:22.816Z,15.67
2022-10-19T08:37:40.659Z,16.80
2022-10-19T08:44:31.753Z,17.77
2022-10-19T08:50:56.778Z,9.63
2022-10-19T08:57:17.799Z,13.87
2022-10-19T09:03:37.863Z,9.00
2022-10-19T09:10:17.310Z,7.37
2022-10-19T09:16:20.658Z,11.03
2022-10-19T09:22:35.803Z,12.57
2022-10-19T09:28:40.900Z,14.77
2022-10-19T09:34:53.339Z,14.47
2022-10-19T09:41:16.194Z,15.50
2022-10-19T09:54:04.800Z,17.07
2022-10-19T10:00:07.409Z,7.77
2022-10-19T10:06:18.351Z,9.60
2022-10-19T10:12:25.184Z,9.90
2022-10-19T10:18:32.207Z,8.90
2022-10-19T10:24:35.327Z,10.23
2022-10-19T10:38:00.521Z,10.80
2022-10-19T10:44:15.443Z,4.13
2022-10-19T10:56:44.656Z,5.60
2022-10-19T11:03:27.710Z,3.53
2022-10-19T11:09:36.685Z,4.37
2022-10-19T11:22:41.364Z,5.80
2022-10-19T12:35:54.049Z,4.83
2022-10-19T12:48:55.565Z,7.30
2022-10-19T13:15:05.120Z,3.77
2022-10-19T13:21:46.074Z,4.67
2022-10-19T13:47:20.253Z,2.33
2022-10-19T13:53:53.234Z,3.87
2022-10-19T14:00:24.301Z,4.43
2022-10-19T14:06:51.364Z,6.33
2022-10-19T14:12:58.758Z,5.43
2022-10-19T14:19:15.789Z,8.57
2022-10-19T14:25:35.881Z,3.03
2022-10-19T14:32:00.117Z,4.40
2022-10-19T14:38:35.612Z,6.13
2022-10-19T14:45:03.885Z,8.03
2022-10-19T14:57:54.324Z,10.73
2022-10-19T15:04:03.902Z,11.80
2022-10-19T15:10:10.631Z,10.40
2022-10-19T15:16:56.937Z,13.13
2022-10-19T15:22:59.361Z,10.90
2022-10-19T15:29:12.180Z,10.80
2022-10-19T15:35:40.365Z,13.40
2022-10-19T15:41:43.705Z,8.03
2022-10-19T15:48:10.476Z,11.10
2022-10-19T15:54:16.138Z,12.47
2022-10-19T16:00:20.428Z,14.50
2022-10-19T16:06:30.911Z,11.40
2022-10-19T16:12:39.257Z,11.77
2022-10-19T16:18:42.782Z,9.77
2022-10-19T16:24:54.500Z,12.43
2022-10-19T16:31:00.453Z,10.43
2022-10-19T16:37:05.859Z,8.93
2022-10-19T16:43:10.270Z,10.73
2022-10-19T16:49:12.705Z,10.37
2022-10-19T16:55:16.933Z,8.20
2022-10-19T17:01:20.080Z,10.83
2022-10-19T17:07:26.763Z,8.77
2022-10-19T17:13:28.663Z,7.60
2022-10-19T17:25:49.568Z,12.07
2022-10-19T17:31:51.404Z,12.40
2022-10-19T17:37:54.486Z,9.57
2022-10-19T17:43:57.133Z,8.67
2022-10-19T17:49:59.026Z,8.53
2022-10-19T17:56:06.985Z,14.80
2022-10-19T18:02:16.341Z,8.97
2022-10-19T18:08:20.234Z,9.20
2022-10-19T18:14:24.406Z,9.73
2022-10-19T18:33:11.691Z,15.87
2022-10-19T18:39:14.396Z,12.27
2022-10-19T18:45:16.612Z,16.73
2022-10-19T18:51:26.661Z,10.57
2022-10-19T18:57:31.961Z,18.83
2022-10-19T19:03:35.317Z,13.07
2022-10-19T19:09:38.300Z,8.87
2022-10-19T19:15:43.201Z,8.40
2022-10-19T19:21:45.745Z,9.10
2022-10-19T19:27:51.156Z,14.60
2022-10-19T19:33:54.421Z,17.07
2022-10-19T19:39:57.281Z,9.50
2022-10-19T19:46:18.203Z,8.73
2022-10-19T19:52:20.130Z,7.07
2022-10-19T19:58:25.376Z,6.50
2022-10-19T20:10:44.398Z,10.63
2022-10-19T20:16:46.179Z,9.70
2022-10-19T20:22:49.066Z,6.33
2022-10-19T20:28:51.415Z,5.03
2022-10-19T20:34:53.588Z,5.47
2022-10-19T20:41:04.240Z,7.20
2022-10-19T20:47:23.842Z,10.40
2022-10-19T20:53:36.106Z,6.03
2022-10-19T20:59:38.971Z,3.77
2022-10-19T21:05:40.855Z,2.40
2022-10-19T21:11:54.436Z,13.00
2022-10-19T21:17:58.721Z,4.70
2022-10-19T21:24:05.025Z,6.03
2022-10-19T21:30:07.335Z,5.23
2022-10-19T21:36:11.959Z,7.27
2022-10-19T21:42:16.620Z,4.10
2022-10-19T21:48:20.359Z,5.13
2022-10-19T21:54:29.419Z,6.70
2022-10-19T22:00:31.471Z,6.17
2022-10-19T22:06:37.949Z,5.37
2022-10-19T22:12:44.413Z,3.90
2022-10-19T22:18:51.047Z,2.93
2022-10-19T22:24:57.934Z,1.53
2022-10-19T22:31:00.131Z,1.53
2022-10-19T22:37:01.978Z,3.30
2022-10-19T22:43:06.718Z,1.20
2022-10-19T22:55:11.392Z,5.70
2022-10-19T23:01:15.075Z,2.87
2022-10-19T23:07:16.954Z,2.87
2022-10-19T23:13:23.325Z,3.23
2022-10-19T23:19:31.962Z,8.20
2022-10-19T23:25:39.877Z,3.37
2022-10-19T23:31:41.609Z,3.77
2022-10-19T23:37:52.868Z,3.23
2022-10-19T23:43:55.240Z,3.53
2022-10-19T23:49:57.271Z,3.67
